Ashland, Texas
Current Conditions -  °F | °C
As of 8:53 PM on Friday 21 Nov 2014 (Local Time) from KGGG Reporting Station
Broken Clouds Broken Clouds  
Wind Chill: 60°   Ceiling: 5000
Heat Index: 60°   Visibility: 10mi
Dew Point: 54°   Wind: 12mph
Humidity: 80%   Direction: 130°SE
Pressure: 30.17"   Gusts: NA
Location:  32.6998°N, 94.6696°W
Report Text: KGGG 220253Z 13010KT 10SM BKN050 16/12 A3017 RMK AO2 SLP215 60000 T01560122 50007
Loading
Personal Weather Stations






























Interactive Weather Map New forecast layout! Learn more

10-Day Weather Forecast

Advertisements
Track Severe Weather on mobile